Flight Track Log - Related Links

Times and Time Zones

All times are in EDT time to prevent confusion due to time zone crossing. See the N121JM flight status page for this flight to view local times or setup timezone preferences in your user account.

Time Position Orientation Groundspeed Altitude Reporting Facility
EDT Latitude Longitude Course Direction KTS MPH feet Rate Location/Type
Sun 08:02:21 AM 33.6470 -84.4220 270° West 167 192 1,200  Level FlightAware ADS-B
Sun 08:02:41 AM 33.6470 -84.4440 270° West 196 226 1,900 1,800 Climbing FlightAware ADS-B
Sun 08:03:01 AM 33.6470 -84.4670 270° West 230 265 2,400 1,714 Climbing FlightAware ADS-B
Sun 08:03:09 AM 33.6490 -84.4780 282° West 241 277 2,700 2,276 Climbing FlightAware ADS-B
Sun 08:03:30 AM 33.6550 -84.5050 285° West 266 306 3,500 2,700 Climbing FlightAware ADS-B
Sun 08:03:49 AM 33.6610 -84.5350 284° West 278 320 4,500 3,805 Climbing FlightAware ADS-B
Sun 08:04:11 AM 33.6660 -84.5680 280° West 270 311 6,100 4,400 Climbing FlightAware ADS-B
Sun 08:04:19 AM 33.6650 -84.5800 264° West 271 312 6,700 3,474 Climbing FlightAware ADS-B
Sun 08:04:30 AM 33.6630 -84.5950 261° West 273 314 7,200 3,000 Climbing FlightAware ADS-B
Sun 08:04:39 AM 33.6580 -84.6080 245° Southwest 276 318 7,700 3,176 Climbing FlightAware ADS-B
Sun 08:04:47 AM 33.6510 -84.6190 233° Southwest 283 326 8,100 2,625 Climbing FlightAware ADS-B
Sun 08:04:55 AM 33.6430 -84.6270 220° Southwest 289 333 8,400 2,100 Climbing FlightAware ADS-B
Sun 08:05:07 AM 33.6280 -84.6360 207° Southwest 300 345 8,800 1,800 Climbing FlightAware ADS-B
Sun 08:05:15 AM 33.6180 -84.6390 194° South 305 351 9,000 1,500 Climbing FlightAware ADS-B
Sun 08:05:35 AM 33.5900 -84.6430 187° South 303 349 9,500 1,350 Climbing FlightAware ADS-B
Sun 08:05:55 AM 33.5620 -84.6440 182° South 305 351 9,900 643 Climbing FlightAware ADS-B
Sun 08:06:31 AM 33.5080 -84.6450 181° South 342 394 10,100 250 Climbing FlightAware ADS-B
Sun 08:07:07 AM 33.4480 -84.6420 178° South 369 425 10,200 476 Climbing FlightAware ADS-B
Sun 08:07:34 AM 33.4050 -84.6250 162° South 364 419 10,600 1,404 Climbing FlightAware ADS-B
Sun 08:07:54 AM 33.3760 -84.6030 148° Southeast 364 419 11,300 2,105 Climbing FlightAware ADS-B
Sun 08:08:31 AM 33.3280 -84.5550 140° Southeast 371 427 12,600 2,143 Climbing FlightAware ADS-B
Sun 08:09:04 AM 33.2860 -84.5080 137° Southeast 379 436 13,800 2,000 Climbing FlightAware ADS-B
Sun 08:09:40 AM 33.2410 -84.4530 134° Southeast 385 443 14,900 2,000 Climbing FlightAware ADS-B
Sun 08:10:16 AM 33.1960 -84.3980 134° Southeast 389 448 16,200 2,333 Climbing FlightAware ADS-B
Sun 08:10:52 AM 33.1500 -84.3440 135° Southeast 388 447 17,700 2,206 Climbing FlightAware ADS-B
Sun 08:11:24 AM 33.1080 -84.2970 137° Southeast 398 458 18,700 1,714 Climbing FlightAware ADS-B
Sun 08:12:02 AM 33.0530 -84.2380 138° Southeast 413 475 19,700 1,800 Climbing FlightAware ADS-B
Sun 08:12:34 AM 33.0050 -84.1930 142° Southeast 415 478 20,800 1,412 Climbing FlightAware ADS-B
Sun 08:13:10 AM 32.9440 -84.1520 151° Southeast 434 499 21,300 545 Climbing FlightAware ADS-B
Sun 08:13:51 AM 32.8770 -84.1170 156° South 440 506 21,500 156 Climbing FlightAware ADS-B
Sun 08:14:27 AM 32.8200 -84.0870 156° South 440 506 21,500  Level FlightAware ADS-B
Sun 08:15:03 AM 32.7630 -84.0570 156° South 440 506 21,500 3,083 Level FlightAware ADS-B
Sun 08:15:39 AM 32.6540 -84.0280 167° South 454 522 25,200 3,909 Climbing FlightAware ADS-B
Sun 08:16:09 AM 32.5950 -84.0070 163° South 459 528 25,800 1,219 Climbing FlightAware ADS-B
Sun 08:16:43 AM 32.5230 -83.9780 161° South 470 541 26,500 1,667 Climbing FlightAware ADS-B
Sun 08:17:21 AM 32.4460 -83.9470 161° South 462 532 27,800 2,108 Climbing FlightAware ADS-B
Sun 08:17:57 AM 32.3740 -83.9160 160° South 453 521 29,100 1,941 Climbing FlightAware ADS-B
Sun 08:18:29 AM 32.3120 -83.8900 160° South 451 519 30,000 1,050 Climbing FlightAware ADS-B
Sun 08:19:17 AM 32.2240 -83.8510 159° South 452 520 30,500 357 Climbing FlightAware ADS-B
Sun 08:19:53 AM 32.1650 -83.8240 159° South 452 520 30,500  Level FlightAware ADS-B
Sun 08:20:29 AM 32.1050 -83.7970 159° South 452 520 30,500  Level FlightAware ADS-B
Sun 08:21:03 AM 32.0490 -83.7710 159° South 452 520 30,500  Level FlightAware ADS-B
Sun 08:21:40 AM 31.9870 -83.7430 159° South 452 520 30,500  Level FlightAware ADS-B
Sun 08:22:17 AM 31.9260 -83.7160 159° South 452 520 30,500  Level FlightAware ADS-B
Sun 08:22:53 AM 31.8660 -83.6890 159° South 452 520 30,500  Level FlightAware ADS-B
Sun 08:23:27 AM 31.8100 -83.6630 158° South 452 520 30,500  Level FlightAware ADS-B
Sun 08:24:04 AM 31.7480 -83.6350 159° South 452 520 30,500 5,786 Level FlightAware ADS-B
Sun 08:24:51 AM 31.5620 -83.5920 169° South 463 533 38,600 6,593 Climbing FlightAware ADS-B
Sun 08:25:25 AM 31.4900 -83.5630 161° South 461 531 39,400 1,385 Climbing FlightAware ADS-B
Sun 08:25:56 AM 31.4300 -83.5390 161° South 458 527 40,100 1,130 Climbing FlightAware ADS-B
Sun 08:26:34 AM 31.3510 -83.5100 163° South 459 528 40,700 658 Climbing FlightAware ADS-B
Sun 08:27:09 AM 31.2790 -83.4840 163° South 472 543 40,900 250 Climbing FlightAware ADS-B
Sun 08:27:46 AM 31.2010 -83.4550 162° South 486 559 41,000 83 Climbing FlightAware ADS-B
Sun 08:28:21 AM 31.1290 -83.4290 163° South 488 562 41,000  Level FlightAware ADS-B
Sun 08:28:54 AM 31.0570 -83.4020 162° South 488 562 41,000  Level FlightAware ADS-B
Sun 08:29:31 AM 30.9750 -83.3710 162° South 489 563 41,000  Level FlightAware ADS-B
Sun 08:30:05 AM 30.9070 -83.3450 162° South 490 564 41,000  Level FlightAware ADS-B
Sun 08:30:39 AM 30.8270 -83.3160 163° South 488 562 41,000  Level FlightAware ADS-B
Sun 08:31:13 AM 30.7580 -83.2900 162° South 488 562 41,000  Level FlightAware ADS-B
Sun 08:31:51 AM 30.6730 -83.2590 163° South 486 559 41,000  Level FlightAware ADS-B
Sun 08:32:24 AM 30.6040 -83.2330 162° South 486 559 41,000  Level FlightAware ADS-B
Sun 08:32:59 AM 30.5280 -83.2050 162° South 485 558 41,000  Level FlightAware ADS-B
Sun 08:33:34 AM 30.4520 -83.1770 162° South 483 556 41,000  Level FlightAware ADS-B
Sun 08:34:11 AM 30.3740 -83.1490 163° South 482 555 41,000  Level FlightAware ADS-B
Sun 08:34:46 AM 30.2990 -83.1210 162° South 484 557 41,000  Level FlightAware ADS-B
Sun 08:35:18 AM 30.2300 -83.0960 163° South 484 557 41,000  Level FlightAware ADS-B
Sun 08:35:54 AM 30.1560 -83.0690 162° South 483 556 41,000  Level FlightAware ADS-B
Sun 08:36:28 AM 30.0800 -83.0410 162° South 483 556 41,000  Level FlightAware ADS-B
Sun 08:37:04 AM 30.0070 -83.0140 162° South 484 557 41,000  Level FlightAware ADS-B
Sun 08:37:39 AM 29.9290 -82.9860 163° South 483 556 41,000  Level FlightAware ADS-B
Sun 08:38:17 AM 29.8490 -82.9570 163° South 484 557 41,000  Level FlightAware ADS-B
Sun 08:38:49 AM 29.7820 -82.9320 162° South 485 558 41,000  Level FlightAware ADS-B
Sun 08:39:26 AM 29.7000 -82.9030 163° South 485 558 41,000  Level FlightAware ADS-B
Sun 08:39:58 AM 29.6330 -82.8780 162° South 487 560 41,000  Level FlightAware ADS-B
Sun 08:40:35 AM 29.5560 -82.8500 162° South 489 563 41,000  Level FlightAware ADS-B
Sun 08:41:10 AM 29.4770 -82.8210 162° South 490 564 41,000  Level FlightAware ADS-B
Sun 08:41:46 AM 29.3990 -82.7930 163° South 490 564 41,000  Level FlightAware ADS-B
Sun 08:42:19 AM 29.3260 -82.7670 163° South 489 563 41,000  Level FlightAware ADS-B
Sun 08:42:56 AM 29.2460 -82.7380 162° South 487 560 41,000  Level FlightAware ADS-B
Sun 08:43:32 AM 29.1690 -82.7110 163° South 486 559 41,000  Level FlightAware ADS-B
Sun 08:44:01 AM 29.1080 -82.6890 163° South 485 558 41,000  Level FlightAware ADS-B
Sun 08:44:40 AM 29.0250 -82.6590 162° South 485 558 41,000  Level FlightAware ADS-B
Sun 08:45:16 AM 28.9470 -82.6320 163° South 484 557 41,000  Level FlightAware ADS-B
Sun 08:45:51 AM 28.8720 -82.6050 163° South 485 558 41,000  Level FlightAware ADS-B
Sun 08:46:28 AM 28.7920 -82.5760 162° South 485 558 41,000  Level FlightAware ADS-B
Sun 08:46:59 AM 28.7260 -82.5530 163° South 486 559 41,000 -88 Level FlightAware ADS-B
Sun 08:47:36 AM 28.6470 -82.5250 163° South 485 558 40,900 -575 Descending FlightAware ADS-B
Sun 08:48:12 AM 28.5680 -82.4970 163° South 482 555 40,300 -1,286 Descending FlightAware ADS-B
Sun 08:48:46 AM 28.4960 -82.4710 162° South 477 549 39,400 -1,826 Descending FlightAware ADS-B
Sun 08:49:21 AM 28.4230 -82.4450 163° South 476 548 38,200 -2,029 Descending FlightAware ADS-B
Sun 08:49:54 AM 28.3540 -82.4210 163° South 476 548 37,100 -1,800 Descending FlightAware ADS-B
Sun 08:50:31 AM 28.2750 -82.3930 163° South 475 547 36,100 -1,333 Descending FlightAware ADS-B
Sun 08:51:06 AM 28.2040 -82.3670 162° South 466 536 35,500 -845 Descending FlightAware ADS-B
Sun 08:51:42 AM 28.1280 -82.3410 163° South 472 543 35,100 -435 Descending FlightAware ADS-B
Sun 08:52:15 AM 28.0600 -82.3170 163° South 473 544 35,000 -86 Descending FlightAware ADS-B
Sun 08:52:52 AM 27.9820 -82.2900 163° South 475 547 35,000  Level FlightAware ADS-B
Sun 08:53:27 AM 27.9100 -82.2650 163° South 476 548 35,000 -179 Level FlightAware ADS-B
Sun 08:53:59 AM 27.8410 -82.2410 163° South 479 551 34,800 -789 Descending FlightAware ADS-B
Sun 08:54:43 AM 27.7450 -82.2080 163° South 484 557 34,000 -1,247 Descending FlightAware ADS-B
Sun 08:55:16 AM 27.6740 -82.1830 163° South 487 560 33,200 -1,652 Descending FlightAware ADS-B
Sun 08:55:52 AM 27.5970 -82.1570 163° South 493 567 32,100 -1,859 Descending FlightAware ADS-B
Sun 08:56:27 AM 27.5250 -82.1320 163° South 488 562 31,000 -2,057 Descending FlightAware ADS-B
Sun 08:57:02 AM 27.4470 -82.1050 163° South 483 556 29,700 -2,301 Descending FlightAware ADS-B
Sun 08:57:40 AM 27.3640 -82.0780 164° South 473 544 28,200 -2,314 Descending FlightAware ADS-B
Sun 08:58:12 AM 27.2990 -82.0560 163° South 468 539 27,000 -2,206 Descending FlightAware ADS-B
Sun 08:58:48 AM 27.2260 -82.0320 164° South 458 527 25,700 -2,055 Descending FlightAware ADS-B
Sun 08:59:25 AM 27.1480 -82.0060 163° South 458 527 24,500 -1,457 Descending FlightAware ADS-B
Sun 08:59:58 AM 27.0820 -81.9840 163° South 446 513 24,000 -448 Descending FlightAware ADS-B
Sun 09:00:32 AM 27.0150 -81.9610 163° South 447 514 24,000 -429 Level FlightAware ADS-B
Sun 09:01:08 AM 26.9450 -81.9370 163° South 446 513 23,500 -1,309 Descending FlightAware ADS-B
Sun 09:01:27 AM 26.9070 -81.9160 154° Southeast 446 513 22,800 -2,182 Descending FlightAware ADS-B
Sun 09:01:52 AM 26.8680 -81.8820 142° Southeast 440 506 21,900 -1,378 Descending FlightAware ADS-B
Sun 09:02:41 AM 26.8040 -81.8110 135° Southeast 434 499 21,100 -1,846 Descending FlightAware ADS-B
Sun 09:03:10 AM 26.7600 -81.7660 138° Southeast 410 472 19,500 -2,000 Descending FlightAware ADS-B
Sun 09:03:44 AM 26.7140 -81.7130 134° Southeast 411 473 19,000 -612 Descending FlightAware ADS-B
Sun 09:03:59 AM 26.6990 -81.6800 117° Southeast 414 476 19,000  Level FlightAware ADS-B
Sun 09:04:25 AM 26.6920 -81.6330 99° East 415 478 19,000  Level FlightAware ADS-B
Sun 09:04:46 AM 26.6990 -81.5850 81° East 414 476 19,000  Level FlightAware ADS-B
Sun 09:05:17 AM 26.7150 -81.5200 75° East 415 478 19,000 -95 Level FlightAware ADS-B
Sun 09:05:49 AM 26.7290 -81.4620 75° East 414 476 18,900 -833 Descending FlightAware ADS-B
Sun 09:06:29 AM 26.7500 -81.3730 75° East 410 472 18,000 -1,895 Descending FlightAware ADS-B
Sun 09:07:05 AM 26.7670 -81.2980 76° East 403 464 16,500 -2,720 Descending FlightAware ADS-B
Sun 09:07:44 AM 26.7850 -81.2230 75° East 400 460 14,600 -3,000 Descending FlightAware ADS-B
Sun 09:08:19 AM 26.8020 -81.1510 75° East 397 457 12,800 -2,743 Descending FlightAware ADS-B
Sun 09:08:54 AM 26.8160 -81.0830 77° East 387 445 11,400 -1,859 Descending FlightAware ADS-B
Sun 09:09:30 AM 26.8230 -81.0170 83° East 368 423 10,600 -1,040 Descending FlightAware ADS-B
Sun 09:10:09 AM 26.8310 -80.9370 84° East 358 412 10,100 -297 Descending FlightAware ADS-B
Sun 09:11:11 AM 26.8390 -80.8340 85° East 359 413 10,100  Level FlightAware ADS-B
Sun 09:11:32 AM 26.8170 -80.7950 122° Southeast 357 411 10,100  Level FlightAware ADS-B
Sun 09:11:54 AM 26.8000 -80.7500 113° Southeast 356 410 10,100  Level FlightAware ADS-B
Sun 09:12:29 AM 26.7770 -80.6890 113° Southeast 350 403 10,100 -92 Level FlightAware ADS-B
Sun 09:12:59 AM 26.7610 -80.6430 111° Southeast 316 364 10,000 -480 Descending FlightAware ADS-B
Sun 09:13:19 AM 26.7520 -80.6130 109° East 302 348 9,700 -1,200 Descending FlightAware ADS-B
Sun 09:13:44 AM 26.7370 -80.5770 115° Southeast 293 337 9,100 -1,500 Descending FlightAware ADS-B
Sun 09:13:59 AM 26.7290 -80.5550 112° Southeast 293 337 8,700 -1,350 Descending FlightAware ADS-B
Sun 09:14:24 AM 26.7170 -80.5200 111° Southeast 302 348 8,200 -800 Descending FlightAware ADS-B
Sun 09:14:44 AM 26.7080 -80.4900 109° East 296 341 8,100 -171 Descending FlightAware ADS-B
Sun 09:14:59 AM 26.7000 -80.4680 112° Southeast 288 331 8,100  Level FlightAware ADS-B
Sun 09:15:29 AM 26.6840 -80.4280 114° Southeast 285 328 8,100 -120 Level FlightAware ADS-B
Sun 09:15:49 AM 26.6730 -80.4010 115° Southeast 285 328 8,000  Descending FlightAware ADS-B
Sun 09:16:09 AM 26.6610 -80.3740 116° Southeast 284 327 8,100 150 Climbing FlightAware ADS-B
Sun 09:16:29 AM 26.6510 -80.3470 113° Southeast 282 325 8,100  Level FlightAware ADS-B
Sun 09:16:55 AM 26.6390 -80.3130 112° Southeast 281 323 8,100 -261 Level FlightAware ADS-B
Sun 09:17:15 AM 26.6300 -80.2860 110° East 276 318 7,900 -923 Descending FlightAware ADS-B
Sun 09:17:34 AM 26.6210 -80.2600 111° Southeast 273 314 7,500 -1,500 Descending FlightAware ADS-B
Sun 09:17:55 AM 26.6120 -80.2330 110° East 274 315 6,900 -1,600 Descending FlightAware ADS-B
Sun 09:18:19 AM 26.5980 -80.2030 118° Southeast 274 315 6,300 -1,538 Descending FlightAware ADS-B
Sun 09:18:34 AM 26.5900 -80.1840 115° Southeast 271 312 5,900 -1,440 Descending FlightAware ADS-B
Sun 09:18:44 AM 26.5860 -80.1700 108° East 271 312 5,700 -1,440 Descending FlightAware ADS-B
Sun 09:18:59 AM 26.5830 -80.1510 100° East 273 314 5,300 -1,440 Descending FlightAware ADS-B
Sun 09:19:34 AM 26.5830 -80.1010 90° East 266 306 4,500 -787 Descending FlightAware ADS-B
Sun 09:20:00 AM 26.5840 -80.0700 88° East 266 306 4,500 -1,280 Level FlightAware ADS-B
Sun 09:20:49 AM 26.5880 -80.0040 86° East 227 261 2,900 -1,759 Descending FlightAware ADS-B
Sun 09:20:58 AM 26.5910 -79.9950 70° East 224 258 2,800 -1,143 Descending FlightAware ADS-B
Sun 09:21:10 AM 26.5990 -79.9840 51° Northeast 225 259 2,500 -571 Descending FlightAware ADS-B
Sun 09:21:40 AM 26.6200 -79.9670 36° Northeast 225 259 2,400 -200 Descending FlightAware ADS-B
Sun 09:27:00 AM 26.6832 -80.0956 299° West  Level Estimated
Sun 09:28:00 AM 26.6832 -80.0956 222° Southwest  Level Estimated
Sun 09:29:00 AM 26.6832 -80.0956 222° Southwest  Level Estimated
Sun 09:30:00 AM 26.6832 -80.0956 222° Southwest  Level Estimated
Sun 09:31:00 AM 26.6832 -80.0956 222° Southwest  Level Estimated
Sun 09:32:00 AM 26.6832 -80.0956 222° Southwest  Level Estimated
Sun 09:33:00 AM 26.6832 -80.0956 222° Southwest  Level Estimated

Login

Don't have an account? Register now (free) for customized features, flight alerts, and more!